createdAt,value
2023-01-07T00:00:10.782Z,100528.28
2023-01-07T00:03:16.638Z,100510.75
2023-01-07T00:06:11.598Z,100542.88
2023-01-07T00:08:58.624Z,100554.03
2023-01-07T00:11:45.964Z,100503.81
2023-01-07T00:14:32.444Z,100528.03
2023-01-07T00:17:18.509Z,100509.63
2023-01-07T00:20:06.673Z,100553.53
2023-01-07T00:22:52.711Z,100553.97
2023-01-07T00:25:38.568Z,100474.06
2023-01-07T00:28:25.041Z,100511.16
2023-01-07T00:31:17.589Z,100545.47
2023-01-07T00:34:04.822Z,100484.06
2023-01-07T00:36:51.807Z,100544.22
2023-01-07T00:39:38.437Z,100528.28
2023-01-07T00:42:44.530Z,100530.19
2023-01-07T00:45:33.467Z,100488.41
2023-01-07T00:48:20.475Z,100482.66
2023-01-07T00:51:09.380Z,100538.06
2023-01-07T00:53:55.622Z,100522.75
2023-01-07T00:56:42.895Z,100562.31
2023-01-07T00:59:29.722Z,100567.53
2023-01-07T01:02:16.768Z,100568.41
2023-01-07T01:05:03.515Z,100457.66
2023-01-07T01:07:52.100Z,100522.66
2023-01-07T01:10:38.874Z,100512.38
2023-01-07T01:13:25.128Z,100566.94
2023-01-07T01:16:16.475Z,100501.50
2023-01-07T01:19:02.975Z,100497.47
2023-01-07T01:21:49.306Z,100544.94
2023-01-07T01:24:35.687Z,100470.78
2023-01-07T01:27:21.527Z,100556.44
2023-01-07T01:30:08.727Z,100524.56
2023-01-07T01:32:58.676Z,100515.25
2023-01-07T01:35:45.490Z,100564.94
2023-01-07T01:38:32.036Z,100530.50
2023-01-07T01:41:19.159Z,100495.41
2023-01-07T01:44:39.112Z,100566.81
2023-01-07T01:47:36.155Z,100562.47
2023-01-07T01:50:43.152Z,100562.78
2023-01-07T01:53:32.391Z,100555.13
2023-01-07T01:56:27.314Z,100448.50
2023-01-07T01:59:18.516Z,100515.31
2023-01-07T02:02:05.404Z,100525.44
2023-01-07T02:04:53.164Z,100491.09
2023-01-07T02:07:39.521Z,100555.16
2023-01-07T02:10:26.833Z,100484.28
2023-01-07T02:13:29.583Z,100526.38
2023-01-07T02:16:42.489Z,100526.09
2023-01-07T02:19:47.250Z,100580.69
2023-01-07T02:23:03.108Z,100577.16
2023-01-07T02:26:26.555Z,100590.03
2023-01-07T02:29:49.851Z,100582.97
2023-01-07T02:33:13.967Z,100591.16
2023-01-07T02:36:16.003Z,100593.09
2023-01-07T02:39:04.645Z,100582.50
2023-01-07T02:42:02.251Z,100466.19
2023-01-07T02:45:05.365Z,100558.28
2023-01-07T02:48:02.944Z,100574.69
2023-01-07T02:50:48.964Z,100500.59
2023-01-07T02:53:35.303Z,100547.19
2023-01-07T02:56:40.454Z,100485.66
2023-01-07T02:59:37.573Z,100526.28
2023-01-07T03:02:55.190Z,100538.00
2023-01-07T03:05:52.412Z,100561.69
2023-01-07T03:08:59.783Z,100556.81
2023-01-07T03:12:05.906Z,100563.06
2023-01-07T03:15:14.659Z,100522.19
2023-01-07T03:18:05.621Z,100537.44
2023-01-07T03:21:00.260Z,100478.59
2023-01-07T03:23:51.624Z,100496.84
2023-01-07T03:26:50.259Z,100534.16
2023-01-07T03:29:36.341Z,100500.38
2023-01-07T03:32:27.980Z,100511.25
2023-01-07T03:35:14.745Z,100484.03
2023-01-07T03:38:03.245Z,100573.66
2023-01-07T03:40:52.337Z,100573.88
2023-01-07T03:43:39.155Z,100539.00
2023-01-07T03:46:26.059Z,100492.13
2023-01-07T03:49:14.512Z,100568.72
2023-01-07T03:52:01.428Z,100492.69
2023-01-07T03:54:47.786Z,100504.34
2023-01-07T03:57:35.228Z,100553.94
2023-01-07T04:00:22.122Z,100508.72
2023-01-07T04:03:20.446Z,100573.56
2023-01-07T04:06:08.269Z,100524.25
2023-01-07T04:08:55.049Z,100531.84
2023-01-07T04:11:41.749Z,100534.56
2023-01-07T04:14:28.158Z,100548.19
2023-01-07T04:17:14.720Z,100537.84
2023-01-07T04:20:01.333Z,100489.88
2023-01-07T04:22:47.586Z,100561.28
2023-01-07T04:25:34.176Z,100512.22
2023-01-07T04:28:22.618Z,100504.31
2023-01-07T04:31:09.715Z,100460.41
2023-01-07T04:33:57.473Z,100552.53
2023-01-07T04:36:45.675Z,100475.13
2023-01-07T04:39:32.354Z,100557.13
2023-01-07T04:42:18.648Z,100517.34
2023-01-07T04:45:05.992Z,100513.31
2023-01-07T04:47:56.320Z,100453.56
2023-01-07T04:50:42.513Z,100530.16
2023-01-07T04:53:28.687Z,100460.59
2023-01-07T04:56:15.293Z,100513.44
2023-01-07T04:59:02.367Z,100519.41
2023-01-07T05:01:49.080Z,100582.41
2023-01-07T05:04:35.586Z,100463.03
2023-01-07T05:07:21.364Z,100577.53
2023-01-07T05:10:08.458Z,100559.25
2023-01-07T05:12:54.658Z,100575.06
2023-01-07T05:15:41.936Z,100559.25
2023-01-07T05:18:28.454Z,100570.44
2023-01-07T05:21:14.820Z,100537.75
2023-01-07T05:24:02.606Z,100518.94
2023-01-07T05:26:51.582Z,100564.22
2023-01-07T05:29:39.644Z,100577.78
2023-01-07T05:32:27.973Z,100575.91
2023-01-07T05:35:13.878Z,100584.34
2023-01-07T05:38:01.780Z,100483.31
2023-01-07T05:40:50.065Z,100542.72
2023-01-07T05:43:40.310Z,100564.00
2023-01-07T05:46:27.276Z,100482.25
2023-01-07T05:49:13.799Z,100557.44
2023-01-07T05:52:00.368Z,100538.56
2023-01-07T05:54:46.442Z,100578.66
2023-01-07T05:57:33.349Z,100509.97
2023-01-07T06:00:19.518Z,100509.94
2023-01-07T06:03:06.583Z,100553.53
2023-01-07T06:05:53.032Z,100550.81
2023-01-07T06:08:39.490Z,100571.00
2023-01-07T06:11:25.507Z,100526.88
2023-01-07T06:14:11.582Z,100599.66
2023-01-07T06:16:57.767Z,100582.69
2023-01-07T06:19:43.811Z,100574.03
2023-01-07T06:22:30.212Z,100551.41
2023-01-07T06:25:16.191Z,100583.06
2023-01-07T06:28:02.717Z,100500.72
2023-01-07T06:30:48.715Z,100566.13
2023-01-07T06:33:40.953Z,100591.16
2023-01-07T06:36:27.171Z,100578.09
2023-01-07T06:39:13.517Z,100606.44
2023-01-07T06:41:59.469Z,100520.50
2023-01-07T06:44:45.806Z,100614.88
2023-01-07T06:47:31.549Z,100555.94
2023-01-07T06:50:18.097Z,100535.50
2023-01-07T06:53:04.179Z,100566.59
2023-01-07T06:55:51.280Z,100515.28
2023-01-07T06:58:37.328Z,100546.63
2023-01-07T07:01:23.877Z,100500.03
2023-01-07T07:04:11.845Z,100616.72
2023-01-07T07:06:58.549Z,100537.41
2023-01-07T07:09:44.904Z,100610.50
2023-01-07T07:12:31.430Z,100586.50
2023-01-07T07:15:17.299Z,100592.25
2023-01-07T07:18:03.822Z,100612.41
2023-01-07T07:20:49.514Z,100545.84
2023-01-07T07:23:35.756Z,100602.28
2023-01-07T07:26:21.946Z,100585.66
2023-01-07T07:29:09.330Z,100584.25
2023-01-07T07:31:56.047Z,100607.97
2023-01-07T07:34:42.535Z,100585.63
2023-01-07T07:37:28.461Z,100582.94
2023-01-07T07:40:16.881Z,100582.63
2023-01-07T07:43:11.948Z,100588.09
2023-01-07T07:46:00.183Z,100594.34
2023-01-07T07:48:49.053Z,100580.16
2023-01-07T07:51:35.906Z,100582.03
2023-01-07T07:54:23.916Z,100587.50
2023-01-07T07:57:12.259Z,100607.97
2023-01-07T07:59:59.139Z,100609.69
2023-01-07T08:02:46.140Z,100506.38
2023-01-07T08:05:32.110Z,100588.97
2023-01-07T08:08:19.015Z,100526.78
2023-01-07T08:11:05.297Z,100580.50
2023-01-07T08:13:51.433Z,100615.72
2023-01-07T08:16:37.555Z,100596.13
2023-01-07T08:19:23.891Z,100552.50
2023-01-07T08:22:09.776Z,100614.38
2023-01-07T08:24:56.756Z,100609.72
2023-01-07T08:27:43.203Z,100582.69
2023-01-07T08:30:30.070Z,100550.00
2023-01-07T08:33:16.635Z,100578.34
2023-01-07T08:36:07.029Z,100544.56
2023-01-07T08:38:54.252Z,100574.56
2023-01-07T08:41:40.423Z,100566.94
2023-01-07T08:44:27.251Z,100610.28
2023-01-07T08:47:13.902Z,100565.59
2023-01-07T08:50:00.402Z,100606.78
2023-01-07T08:52:49.021Z,100551.16
2023-01-07T08:55:34.640Z,100554.16
2023-01-07T08:58:25.812Z,100577.09
2023-01-07T09:01:12.235Z,100540.03
2023-01-07T09:04:00.789Z,100582.47
2023-01-07T09:06:46.772Z,100516.81
2023-01-07T09:09:33.429Z,100579.25
2023-01-07T09:12:19.457Z,100578.19
2023-01-07T09:15:07.033Z,100617.72
2023-01-07T09:17:53.331Z,100543.03
2023-01-07T09:20:39.969Z,100574.94
2023-01-07T09:23:26.352Z,100550.47
2023-01-07T09:26:13.690Z,100511.25
2023-01-07T09:29:02.129Z,100609.34
2023-01-07T09:31:48.946Z,100496.81
2023-01-07T09:34:35.310Z,100500.38
2023-01-07T09:37:22.538Z,100506.38
2023-01-07T09:40:19.878Z,100599.59
2023-01-07T09:44:00.623Z,100600.97
2023-01-07T09:46:34.840Z,100548.66
2023-01-07T09:49:22.366Z,100527.97
2023-01-07T09:52:14.832Z,100550.59
2023-01-07T09:55:06.903Z,100546.53
2023-01-07T09:57:52.758Z,100525.53
2023-01-07T10:00:52.940Z,100583.56
2023-01-07T10:04:06.741Z,100466.50
2023-01-07T10:07:09.277Z,100489.41
2023-01-07T10:10:04.351Z,100583.88
2023-01-07T10:13:19.334Z,100567.56
2023-01-07T10:16:14.179Z,100529.16
2023-01-07T10:19:39.048Z,100569.19
2023-01-07T10:22:31.222Z,100470.09
2023-01-07T10:25:24.289Z,100508.47
2023-01-07T10:28:15.519Z,100457.63
2023-01-07T10:31:02.801Z,100478.31
2023-01-07T10:33:49.966Z,100548.25
2023-01-07T10:37:01.760Z,100475.84
2023-01-07T10:39:54.005Z,100549.38
2023-01-07T10:43:09.503Z,100540.97
2023-01-07T10:45:55.668Z,100521.63
2023-01-07T10:49:03.934Z,100537.69
2023-01-07T10:52:05.857Z,100527.06
2023-01-07T10:55:11.426Z,100547.47
2023-01-07T10:57:58.467Z,100489.19
2023-01-07T11:00:48.299Z,100432.09
2023-01-07T11:03:40.302Z,100469.59
2023-01-07T11:06:52.278Z,100482.97
2023-01-07T11:09:43.257Z,100458.19
2023-01-07T11:12:55.671Z,100536.59
2023-01-07T11:15:46.378Z,100469.91
2023-01-07T11:18:54.477Z,100486.75
2023-01-07T11:21:44.738Z,100532.47
2023-01-07T11:24:35.653Z,100421.19
2023-01-07T11:27:24.975Z,100408.16
2023-01-07T11:30:26.247Z,100492.78
2023-01-07T11:33:24.308Z,100480.78
2023-01-07T11:36:41.699Z,100455.47
2023-01-07T11:39:33.183Z,100412.22
2023-01-07T11:42:38.817Z,100414.94
2023-01-07T11:46:23.983Z,100410.88
2023-01-07T11:49:30.905Z,100413.59
2023-01-07T11:52:37.854Z,100411.13
2023-01-07T11:55:29.701Z,100419.28
2023-01-07T11:58:29.433Z,100396.44
2023-01-07T12:01:20.810Z,100408.94
2023-01-07T12:04:32.394Z,100510.19
2023-01-07T12:07:20.847Z,100462.00
2023-01-07T12:10:31.700Z,100396.97
2023-01-07T12:13:25.813Z,100451.41
2023-01-07T12:16:31.599Z,100495.47
2023-01-07T12:19:46.411Z,100382.31
2023-01-07T12:22:49.128Z,100387.19
2023-01-07T12:25:50.889Z,100425.81
2023-01-07T12:29:12.721Z,100481.59
2023-01-07T12:32:26.684Z,100439.97
2023-01-07T12:35:43.920Z,100476.16
2023-01-07T12:38:40.472Z,100372.78
2023-01-07T12:41:38.219Z,100434.22
2023-01-07T12:44:39.446Z,100360.00
2023-01-07T12:47:40.630Z,100424.72
2023-01-07T12:50:50.127Z,100461.44
2023-01-07T12:53:55.174Z,100401.59
2023-01-07T12:56:54.391Z,100417.91
2023-01-07T13:00:08.728Z,100375.78
2023-01-07T13:03:17.891Z,100433.16
2023-01-07T13:06:16.380Z,100354.84
2023-01-07T13:09:28.350Z,100368.44
2023-01-07T13:12:46.491Z,100471.78
2023-01-07T13:15:41.253Z,100425.81
2023-01-07T13:18:29.791Z,100349.66
2023-01-07T13:21:18.790Z,100386.88
2023-01-07T13:24:56.527Z,100453.50
2023-01-07T13:28:05.307Z,100455.97
2023-01-07T13:31:37.756Z,100442.38
2023-01-07T13:35:02.202Z,100439.91
2023-01-07T13:38:07.460Z,100440.19
2023-01-07T13:41:47.429Z,100436.94
2023-01-07T13:45:05.377Z,100319.50
2023-01-07T13:48:16.561Z,100324.38
2023-01-07T13:51:16.251Z,100342.59
2023-01-07T13:54:57.374Z,100348.31
2023-01-07T13:58:35.103Z,100381.22
2023-01-07T14:01:37.657Z,100313.25
2023-01-07T14:05:12.686Z,100336.63
2023-01-07T14:08:21.912Z,100338.25
2023-01-07T14:11:43.957Z,100445.69
2023-01-07T14:14:59.117Z,100447.59
2023-01-07T14:18:19.884Z,100452.75
2023-01-07T14:21:36.573Z,100452.22
2023-01-07T14:25:14.362Z,100386.38
2023-01-07T14:34:13.999Z,100401.59
2023-01-07T14:38:10.672Z,100363.78
2023-01-07T14:41:37.029Z,100417.66
2023-01-07T14:44:53.245Z,100327.13
2023-01-07T14:48:39.617Z,100367.06
2023-01-07T14:53:01.852Z,100415.19
2023-01-07T14:57:18.681Z,100309.19
2023-01-07T15:06:20.254Z,100286.34
2023-01-07T15:10:31.101Z,100320.03
2023-01-07T15:14:33.995Z,100406.75
2023-01-07T15:23:00.951Z,100382.53
2023-01-07T15:26:43.083Z,100293.69
2023-01-07T15:30:41.995Z,100410.03
2023-01-07T15:34:21.298Z,100332.81
2023-01-07T15:37:42.054Z,100368.97
2023-01-07T15:40:57.337Z,100396.66
2023-01-07T15:44:52.328Z,100393.72
2023-01-07T15:48:39.788Z,100375.44
2023-01-07T15:51:51.473Z,100295.59
2023-01-07T15:56:11.371Z,100290.97
2023-01-07T15:59:10.368Z,100282.53
2023-01-07T16:02:33.504Z,100304.00
2023-01-07T16:05:38.140Z,100280.91
2023-01-07T16:08:31.409Z,100292.84
2023-01-07T16:11:28.227Z,100294.22
2023-01-07T16:14:22.972Z,100291.22
2023-01-07T16:17:17.314Z,100280.38
2023-01-07T16:21:02.940Z,100310.00
2023-01-07T16:24:16.565Z,100330.66
2023-01-07T16:27:15.185Z,100346.16
2023-01-07T16:30:22.863Z,100375.50
2023-01-07T16:33:26.717Z,100344.22
2023-01-07T16:36:23.573Z,100272.50
2023-01-07T16:39:24.257Z,100276.56
2023-01-07T16:42:23.324Z,100352.69
2023-01-07T16:45:24.363Z,100289.34
2023-01-07T16:48:21.740Z,100279.81
2023-01-07T16:51:46.569Z,100310.00
2023-01-07T16:54:45.777Z,100336.34
2023-01-07T16:57:42.729Z,100270.59
2023-01-07T17:00:33.499Z,100315.97
2023-01-07T17:03:33.307Z,100325.47
2023-01-07T17:06:31.846Z,100279.25
2023-01-07T17:09:44.951Z,100278.19
2023-01-07T17:12:41.075Z,100289.06
2023-01-07T17:15:34.053Z,100269.75
2023-01-07T17:18:29.660Z,100367.59
2023-01-07T17:21:41.888Z,100267.56
2023-01-07T17:24:47.501Z,100383.88
2023-01-07T17:27:53.451Z,100273.00
2023-01-07T17:30:48.626Z,100381.44
2023-01-07T17:33:56.794Z,100264.03
2023-01-07T17:36:58.077Z,100377.06
2023-01-07T17:39:58.731Z,100248.28
2023-01-07T17:43:17.377Z,100270.56
2023-01-07T17:47:07.529Z,100368.34
2023-01-07T17:51:08.244Z,100279.47
2023-01-07T17:54:04.840Z,100377.88
2023-01-07T17:56:58.575Z,100257.75
2023-01-07T17:59:50.204Z,100250.97
2023-01-07T18:02:46.244Z,100311.00
2023-01-07T18:05:41.577Z,100255.03
2023-01-07T18:08:35.746Z,100228.69
2023-01-07T18:11:59.299Z,100235.47
2023-01-07T18:14:56.392Z,100350.97
2023-01-07T18:18:06.509Z,100232.53
2023-01-07T18:21:08.452Z,100346.63
2023-01-07T18:24:00.271Z,100220.00
2023-01-07T18:27:07.602Z,100238.50
2023-01-07T18:30:07.589Z,100275.16
2023-01-07T18:33:00.643Z,100334.38
2023-01-07T18:35:49.152Z,100343.38
2023-01-07T18:38:38.041Z,100303.44
2023-01-07T18:41:35.004Z,100220.59
2023-01-07T18:44:26.923Z,100224.41
2023-01-07T18:47:18.781Z,100253.19
2023-01-07T18:50:11.148Z,100233.63
2023-01-07T18:52:59.351Z,100284.19
2023-01-07T18:55:58.015Z,100219.22
2023-01-07T18:58:54.801Z,100293.41
2023-01-07T19:01:41.267Z,100225.22
2023-01-07T19:04:29.158Z,100230.63
2023-01-07T19:07:17.724Z,100230.09
2023-01-07T19:10:09.385Z,100234.19
2023-01-07T19:12:58.552Z,100224.97
2023-01-07T19:15:45.788Z,100228.75
2023-01-07T19:18:32.756Z,100310.25
2023-01-07T19:21:19.658Z,100280.91
2023-01-07T19:24:06.617Z,100221.69
2023-01-07T19:26:53.551Z,100265.97
2023-01-07T19:29:41.475Z,100204.84
2023-01-07T19:32:30.367Z,100238.28
2023-01-07T19:35:16.248Z,100252.94
2023-01-07T19:38:03.835Z,100224.16
2023-01-07T19:40:49.727Z,100332.53
2023-01-07T19:43:36.066Z,100224.69
2023-01-07T19:46:21.906Z,100281.72
2023-01-07T19:49:11.848Z,100250.75
2023-01-07T19:51:57.887Z,100279.81
2023-01-07T19:54:54.030Z,100308.31
2023-01-07T19:57:39.547Z,100311.84
2023-01-07T20:00:28.179Z,100198.06
2023-01-07T20:03:14.685Z,100183.66
2023-01-07T20:06:05.699Z,100283.06
2023-01-07T20:08:58.833Z,100237.97
2023-01-07T20:11:46.628Z,100260.81
2023-01-07T20:14:35.584Z,100237.97
2023-01-07T20:17:22.422Z,100262.44
2023-01-07T20:20:10.467Z,100248.03
2023-01-07T20:23:01.016Z,100264.03
2023-01-07T20:25:47.530Z,100246.94
2023-01-07T20:28:35.660Z,100232.84
2023-01-07T20:31:23.462Z,100257.81
2023-01-07T20:34:10.049Z,100223.59
2023-01-07T20:36:55.920Z,100255.38
2023-01-07T20:39:42.066Z,100247.22
2023-01-07T20:42:33.254Z,100271.69
2023-01-07T20:45:20.327Z,100272.75
2023-01-07T20:48:07.994Z,100189.63
2023-01-07T20:50:56.101Z,100198.84
2023-01-07T20:53:43.330Z,100168.16
2023-01-07T20:56:32.764Z,100164.63
2023-01-07T20:59:19.043Z,100256.47
2023-01-07T21:02:06.362Z,100251.03
2023-01-07T21:04:53.279Z,100253.44
2023-01-07T21:07:43.682Z,100224.91
2023-01-07T21:10:29.782Z,100204.56
2023-01-07T21:13:16.605Z,100147.22
2023-01-07T21:16:04.334Z,100222.47
2023-01-07T21:18:50.971Z,100252.91
2023-01-07T21:21:36.765Z,100249.38
2023-01-07T21:24:23.023Z,100196.13
2023-01-07T21:27:09.610Z,100195.00
2023-01-07T21:29:55.712Z,100196.13
2023-01-07T21:32:41.776Z,100161.34
2023-01-07T21:35:27.786Z,100235.81
2023-01-07T21:38:14.979Z,100177.63
2023-01-07T21:41:08.247Z,100161.34
2023-01-07T21:43:54.768Z,100191.75
2023-01-07T21:46:44.605Z,100185.25
2023-01-07T21:49:32.107Z,100151.03
2023-01-07T21:52:18.947Z,100213.50
2023-01-07T21:55:05.169Z,100178.72
2023-01-07T21:57:51.281Z,100187.16
2023-01-07T22:00:37.296Z,100161.03
2023-01-07T22:03:24.317Z,100172.44
2023-01-07T22:06:18.782Z,100165.69
2023-01-07T22:09:07.576Z,100131.72
2023-01-07T22:11:53.384Z,100174.63
2023-01-07T22:14:39.945Z,100170.81
2023-01-07T22:17:27.670Z,100124.34
2023-01-07T22:20:13.620Z,100134.19
2023-01-07T22:22:59.377Z,100171.38
2023-01-07T22:25:45.676Z,100135.50
2023-01-07T22:28:33.335Z,100071.69
2023-01-07T22:31:28.519Z,100097.75
2023-01-07T22:34:14.739Z,100104.56
2023-01-07T22:37:08.656Z,100064.41
2023-01-07T22:40:00.990Z,100127.63
2023-01-07T22:42:55.819Z,100068.97
2023-01-07T22:45:51.828Z,100157.00
2023-01-07T22:48:39.369Z,100116.81
2023-01-07T22:51:30.888Z,100145.84
2023-01-07T22:54:17.358Z,100071.72
2023-01-07T22:57:09.189Z,100063.03
2023-01-07T22:59:56.210Z,100123.59
2023-01-07T23:02:42.931Z,100066.56
2023-01-07T23:05:29.556Z,100036.44
2023-01-07T23:08:15.695Z,100135.28
2023-01-07T23:11:01.779Z,100129.56
2023-01-07T23:13:47.943Z,100114.91
2023-01-07T23:16:37.908Z,100100.25
2023-01-07T23:19:24.135Z,100128.22
2023-01-07T23:22:10.455Z,100094.53
2023-01-07T23:24:56.524Z,100111.63
2023-01-07T23:27:42.586Z,100102.97
2023-01-07T23:30:28.438Z,100124.41
2023-01-07T23:33:15.091Z,100048.06
2023-01-07T23:36:03.048Z,100009.28
2023-01-07T23:38:49.505Z,100093.44
2023-01-07T23:41:35.565Z,100002.50
2023-01-07T23:44:21.671Z,100033.44
2023-01-07T23:47:07.426Z,100022.34
2023-01-07T23:49:55.561Z,100052.19
2023-01-07T23:52:41.152Z,100059.25
2023-01-07T23:55:27.194Z,100063.06
2023-01-07T23:58:13.554Z,100080.19
